createdAt,value
2022-10-01T00:02:10.627Z,27.30
2022-10-01T00:04:37.891Z,27.30
2022-10-01T00:07:09.319Z,27.29
2022-10-01T00:09:35.716Z,27.29
2022-10-01T00:12:02.906Z,27.27
2022-10-01T00:14:29.461Z,27.27
2022-10-01T00:16:55.882Z,27.28
2022-10-01T00:19:22.890Z,27.28
2022-10-01T00:21:49.589Z,27.28
2022-10-01T00:24:15.999Z,27.26
2022-10-01T00:26:42.896Z,27.28
2022-10-01T00:29:13.020Z,27.34
2022-10-01T00:31:40.169Z,27.25
2022-10-01T00:34:06.727Z,27.25
2022-10-01T00:36:34.053Z,27.28
2022-10-01T00:39:00.925Z,27.26
2022-10-01T00:41:33.578Z,27.31
2022-10-01T00:44:32.390Z,27.39
2022-10-01T00:47:08.354Z,27.35
2022-10-01T00:49:37.832Z,27.27
2022-10-01T00:52:09.632Z,27.27
2022-10-01T00:54:50.815Z,27.37
2022-10-01T00:57:21.802Z,27.28
2022-10-01T00:59:49.922Z,27.25
2022-10-01T01:02:16.401Z,27.24
2022-10-01T01:04:42.935Z,27.21
2022-10-01T01:07:09.863Z,27.25
2022-10-01T01:09:41.811Z,27.31
2022-10-01T01:12:47.453Z,27.36
2022-10-01T01:15:21.586Z,27.30
2022-10-01T01:17:59.895Z,27.30
2022-10-01T01:20:49.907Z,27.30
2022-10-01T01:23:16.236Z,27.22
2022-10-01T01:25:51.795Z,27.32
2022-10-01T01:28:32.048Z,27.30
2022-10-01T01:31:04.665Z,27.28
2022-10-01T01:33:34.830Z,27.25
2022-10-01T01:36:06.887Z,27.23
2022-10-01T01:38:39.103Z,27.25
2022-10-01T01:41:07.848Z,27.10
2022-10-01T01:43:38.434Z,27.22
2022-10-01T01:46:07.594Z,27.19
2022-10-01T01:48:36.748Z,27.23
2022-10-01T01:51:11.124Z,27.30
2022-10-01T01:53:38.130Z,27.19
2022-10-01T01:56:06.122Z,27.19
2022-10-01T01:58:34.168Z,27.20
2022-10-01T02:01:02.272Z,27.19
2022-10-01T02:03:30.640Z,27.19
2022-10-01T02:06:13.855Z,27.26
2022-10-01T02:08:49.774Z,27.24
2022-10-01T02:11:26.973Z,27.25
2022-10-01T02:14:06.624Z,27.26
2022-10-01T02:16:46.675Z,27.25
2022-10-01T02:19:14.029Z,27.16
2022-10-01T02:22:00.319Z,27.28
2022-10-01T02:24:26.631Z,27.15
2022-10-01T02:26:55.811Z,27.16
2022-10-01T02:29:23.772Z,27.15
2022-10-01T02:31:53.436Z,27.16
2022-10-01T02:34:21.719Z,27.11
2022-10-01T02:36:48.970Z,27.10
2022-10-01T02:39:18.250Z,27.17
2022-10-01T02:41:47.990Z,27.15
2022-10-01T02:44:21.310Z,27.15
2022-10-01T02:47:03.894Z,27.21
2022-10-01T02:49:31.207Z,27.11
2022-10-01T02:52:19.235Z,27.17
2022-10-01T02:54:51.802Z,27.18
2022-10-01T02:57:26.947Z,27.09
2022-10-01T03:00:07.636Z,27.21
2022-10-01T03:02:34.205Z,27.10
2022-10-01T03:05:01.982Z,27.09
2022-10-01T03:07:31.165Z,27.12
2022-10-01T03:09:58.013Z,27.09
2022-10-01T03:12:24.404Z,27.08
2022-10-01T03:14:51.127Z,27.08
2022-10-01T03:17:17.965Z,27.07
2022-10-01T03:19:44.408Z,27.08
2022-10-01T03:22:14.064Z,27.12
2022-10-01T03:24:40.559Z,26.92
2022-10-01T03:27:06.972Z,27.06
2022-10-01T03:29:33.399Z,27.07
2022-10-01T03:31:59.919Z,27.04
2022-10-01T03:34:26.396Z,27.05
2022-10-01T03:36:52.831Z,27.05
2022-10-01T03:39:19.500Z,27.05
2022-10-01T03:41:46.139Z,27.02
2022-10-01T03:44:12.787Z,27.05
2022-10-01T03:46:39.230Z,27.05
2022-10-01T03:49:05.632Z,27.04
2022-10-01T03:51:32.455Z,27.01
2022-10-01T03:53:59.223Z,27.02
2022-10-01T03:56:26.149Z,27.04
2022-10-01T03:58:53.625Z,26.99
2022-10-01T04:01:20.484Z,27.02
2022-10-01T04:03:47.179Z,27.03
2022-10-01T04:06:13.835Z,27.04
2022-10-01T04:08:40.315Z,27.00
2022-10-01T04:11:07.603Z,27.01
2022-10-01T04:13:34.824Z,27.00
2022-10-01T04:16:05.209Z,27.08
2022-10-01T04:18:31.678Z,26.99
2022-10-01T04:20:58.215Z,27.02
2022-10-01T04:23:25.396Z,27.00
2022-10-01T04:25:51.766Z,27.00
2022-10-01T04:28:18.315Z,26.99
2022-10-01T04:30:46.328Z,27.02
2022-10-01T04:33:16.794Z,27.00
2022-10-01T04:35:43.579Z,26.98
2022-10-01T04:38:16.851Z,27.08
2022-10-01T04:40:43.793Z,26.99
2022-10-01T04:43:13.251Z,26.98
2022-10-01T04:45:39.880Z,26.98
2022-10-01T04:48:06.279Z,26.91
2022-10-01T04:50:33.144Z,26.99
2022-10-01T04:52:59.625Z,26.98
2022-10-01T04:55:26.179Z,26.99
2022-10-01T04:57:52.618Z,26.99
2022-10-01T05:00:21.971Z,26.99
2022-10-01T05:02:50.002Z,27.00
2022-10-01T05:05:17.997Z,26.99
2022-10-01T05:07:44.638Z,26.95
2022-10-01T05:10:19.685Z,27.05
2022-10-01T05:12:47.237Z,26.97
2022-10-01T05:15:15.383Z,26.97
2022-10-01T05:17:42.050Z,26.96
2022-10-01T05:20:15.538Z,27.00
2022-10-01T05:22:41.907Z,26.96
2022-10-01T05:25:08.638Z,26.95
2022-10-01T05:27:40.402Z,26.92
2022-10-01T05:30:09.187Z,26.96
2022-10-01T05:32:36.365Z,26.92
2022-10-01T05:35:03.967Z,26.93
2022-10-01T05:37:30.352Z,26.94
2022-10-01T05:39:56.727Z,26.91
2022-10-01T05:42:23.106Z,26.95
2022-10-01T05:44:50.044Z,26.92
2022-10-01T05:47:17.380Z,26.92
2022-10-01T05:49:44.491Z,26.92
2022-10-01T05:52:12.136Z,26.93
2022-10-01T05:54:38.730Z,26.92
2022-10-01T05:57:06.115Z,26.89
2022-10-01T05:59:32.548Z,26.91
2022-10-01T06:01:59.116Z,26.92
2022-10-01T06:04:25.655Z,26.92
2022-10-01T06:06:53.503Z,26.92
2022-10-01T06:09:19.908Z,26.91
2022-10-01T06:11:48.867Z,26.91
2022-10-01T06:14:18.906Z,26.91
2022-10-01T06:16:46.896Z,26.66
2022-10-01T06:19:13.463Z,26.91
2022-10-01T06:21:39.839Z,26.89
2022-10-01T06:24:06.270Z,26.88
2022-10-01T06:26:32.690Z,26.90
2022-10-01T06:28:59.075Z,26.90
2022-10-01T06:31:25.519Z,26.90
2022-10-01T06:33:51.963Z,26.88
2022-10-01T06:36:18.364Z,26.89
2022-10-01T06:38:48.424Z,26.96
2022-10-01T06:41:15.320Z,26.85
2022-10-01T06:43:41.692Z,26.87
2022-10-01T06:46:08.541Z,26.88
2022-10-01T06:48:36.596Z,26.86
2022-10-01T06:51:03.586Z,26.87
2022-10-01T06:53:30.091Z,26.86
2022-10-01T06:55:56.897Z,26.85
2022-10-01T06:58:27.966Z,26.88
2022-10-01T07:01:02.075Z,26.97
2022-10-01T07:03:28.737Z,26.93
2022-10-01T07:06:01.455Z,26.90
2022-10-01T07:08:27.931Z,26.85
2022-10-01T07:10:59.547Z,26.92
2022-10-01T07:13:25.952Z,26.85
2022-10-01T07:15:52.333Z,26.86
2022-10-01T07:18:18.755Z,26.87
2022-10-01T07:20:45.141Z,26.85
2022-10-01T07:23:13.495Z,26.87
2022-10-01T07:25:41.502Z,26.87
2022-10-01T07:28:16.310Z,26.89
2022-10-01T07:30:56.652Z,26.87
2022-10-01T07:33:23.166Z,26.85
2022-10-01T07:35:49.538Z,26.84
2022-10-01T07:38:16.599Z,26.84
2022-10-01T07:40:43.179Z,26.83
2022-10-01T07:43:09.569Z,26.83
2022-10-01T07:45:36.007Z,26.83
2022-10-01T07:48:03.154Z,26.84
2022-10-01T07:50:32.685Z,26.83
2022-10-01T07:52:59.916Z,26.80
2022-10-01T07:55:28.103Z,26.82
2022-10-01T07:57:59.509Z,26.84
2022-10-01T08:00:27.374Z,26.82
2022-10-01T08:02:56.052Z,26.82
2022-10-01T08:05:29.002Z,26.90
2022-10-01T08:08:00.434Z,26.88
2022-10-01T08:10:27.850Z,26.83
2022-10-01T08:13:01.337Z,26.91
2022-10-01T08:15:28.774Z,26.82
2022-10-01T08:17:55.232Z,26.80
2022-10-01T08:20:21.602Z,26.82
2022-10-01T08:22:48.038Z,26.80
2022-10-01T08:25:14.483Z,26.80
2022-10-01T08:27:42.049Z,26.71
2022-10-01T08:30:08.890Z,26.81
2022-10-01T08:32:35.295Z,26.82
2022-10-01T08:35:01.682Z,26.80
2022-10-01T08:37:29.283Z,26.82
2022-10-01T08:39:56.588Z,26.82
2022-10-01T08:42:25.890Z,26.87
2022-10-01T08:44:53.091Z,26.78
2022-10-01T08:47:33.767Z,26.89
2022-10-01T08:50:26.023Z,26.86
2022-10-01T08:52:57.725Z,26.77
2022-10-01T08:55:27.826Z,26.84
2022-10-01T08:57:58.802Z,26.84
2022-10-01T09:00:27.274Z,26.81
2022-10-01T09:02:53.970Z,26.79
2022-10-01T09:05:39.343Z,26.80
2022-10-01T09:08:43.791Z,26.90
2022-10-01T09:11:25.432Z,26.89
2022-10-01T09:13:59.724Z,26.87
2022-10-01T09:16:37.537Z,26.86
2022-10-01T09:19:29.764Z,26.89
2022-10-01T09:21:58.977Z,26.77
2022-10-01T09:24:28.391Z,26.82
2022-10-01T09:26:55.250Z,26.76
2022-10-01T09:29:33.830Z,26.86
2022-10-01T09:32:03.365Z,26.77
2022-10-01T09:34:41.011Z,26.85
2022-10-01T09:37:27.607Z,26.88
2022-10-01T09:40:19.862Z,26.88
2022-10-01T09:42:47.518Z,26.73
2022-10-01T09:45:18.670Z,26.81
2022-10-01T09:47:51.330Z,26.84
2022-10-01T09:50:45.022Z,26.86
2022-10-01T09:53:20.037Z,26.83
2022-10-01T09:55:53.527Z,26.82
2022-10-01T09:58:26.678Z,26.84
2022-10-01T10:00:54.650Z,26.76
2022-10-01T10:03:28.424Z,26.75
2022-10-01T10:05:54.977Z,26.76
2022-10-01T10:08:31.154Z,26.87
2022-10-01T10:11:00.631Z,26.79
2022-10-01T10:13:27.081Z,26.77
2022-10-01T10:15:59.540Z,26.79
2022-10-01T10:18:35.266Z,26.85
2022-10-01T10:21:10.787Z,26.80
2022-10-01T10:23:47.510Z,26.87
2022-10-01T10:26:19.510Z,26.84
2022-10-01T10:28:46.696Z,26.77
2022-10-01T10:31:20.223Z,26.83
2022-10-01T10:34:05.576Z,26.88
2022-10-01T10:36:35.691Z,26.78
2022-10-01T10:39:06.187Z,26.81
2022-10-01T10:41:35.591Z,26.80
2022-10-01T10:44:06.428Z,26.82
2022-10-01T10:46:35.432Z,26.80
2022-10-01T10:49:07.996Z,26.82
2022-10-01T10:52:17.509Z,26.90
2022-10-01T10:54:48.525Z,26.84
2022-10-01T10:57:28.732Z,26.89
2022-10-01T11:00:07.643Z,26.90
2022-10-01T11:02:34.121Z,26.79
2022-10-01T11:05:14.828Z,26.85
2022-10-01T11:07:45.082Z,26.86
2022-10-01T11:10:28.180Z,26.91
2022-10-01T11:13:13.475Z,26.91
2022-10-01T11:15:58.340Z,26.90
2022-10-01T11:18:43.705Z,26.80
2022-10-01T11:21:16.031Z,26.85
2022-10-01T11:23:42.399Z,26.80
2022-10-01T11:26:16.466Z,26.79
2022-10-01T11:28:46.005Z,26.79
2022-10-01T11:31:37.573Z,26.91
2022-10-01T11:34:50.256Z,26.88
2022-10-01T11:37:28.536Z,26.86
2022-10-01T11:39:58.419Z,26.73
2022-10-01T11:42:35.478Z,26.82
2022-10-01T11:45:42.276Z,26.84
2022-10-01T11:48:19.203Z,26.81
2022-10-01T11:50:51.696Z,26.76
2022-10-01T11:53:20.887Z,26.79
2022-10-01T11:56:19.178Z,26.83
2022-10-01T11:58:50.832Z,26.73
2022-10-01T12:01:29.274Z,26.73
2022-10-01T12:04:06.812Z,26.73
2022-10-01T12:06:43.396Z,26.79
2022-10-01T12:09:21.702Z,26.83
2022-10-01T12:12:03.705Z,26.83
2022-10-01T12:14:42.981Z,26.84
2022-10-01T12:17:34.971Z,26.83
2022-10-01T12:20:04.584Z,26.76
2022-10-01T12:22:34.590Z,26.78
2022-10-01T12:25:01.555Z,26.76
2022-10-01T12:27:35.810Z,26.77
2022-10-01T12:30:09.927Z,26.80
2022-10-01T12:32:47.697Z,26.85
2022-10-01T12:35:36.171Z,26.89
2022-10-01T12:38:40.765Z,26.90
2022-10-01T12:41:31.561Z,26.89
2022-10-01T12:44:03.927Z,26.79
2022-10-01T12:46:40.095Z,26.89
2022-10-01T12:49:12.663Z,26.74
2022-10-01T12:51:43.998Z,26.85
2022-10-01T12:54:46.356Z,26.90
2022-10-01T12:57:33.020Z,26.82
2022-10-01T13:00:04.972Z,26.90
2022-10-01T13:03:13.045Z,26.94
2022-10-01T13:05:48.402Z,26.92
2022-10-01T13:08:17.673Z,26.83
2022-10-01T13:11:25.343Z,26.95
2022-10-01T13:13:53.596Z,26.85
2022-10-01T13:16:43.794Z,26.92
2022-10-01T13:19:17.956Z,26.92
2022-10-01T13:22:07.665Z,26.92
2022-10-01T13:24:52.814Z,26.97
2022-10-01T13:27:35.797Z,26.95
2022-10-01T13:30:13.705Z,26.91
2022-10-01T13:32:57.784Z,26.98
2022-10-01T13:35:24.416Z,26.87
2022-10-01T13:37:50.950Z,26.86
2022-10-01T13:40:32.119Z,27.01
2022-10-01T13:43:16.217Z,26.99
2022-10-01T13:45:48.464Z,26.94
2022-10-01T13:48:19.340Z,26.93
2022-10-01T13:51:05.121Z,27.04
2022-10-01T13:53:36.208Z,26.96
2022-10-01T13:56:03.657Z,26.93
2022-10-01T13:58:29.961Z,26.93
2022-10-01T14:00:59.194Z,26.97
2022-10-01T14:03:43.521Z,27.00
2022-10-01T14:06:24.398Z,27.04
2022-10-01T14:09:05.428Z,27.04
2022-10-01T14:11:54.419Z,27.00
2022-10-01T14:14:46.317Z,26.99
2022-10-01T14:17:14.099Z,26.95
2022-10-01T14:19:47.132Z,27.03
2022-10-01T14:22:32.520Z,27.02
2022-10-01T14:25:15.444Z,26.97
2022-10-01T14:27:44.586Z,26.97
2022-10-01T14:30:15.899Z,27.01
2022-10-01T14:33:12.855Z,27.10
2022-10-01T14:36:00.922Z,27.07
2022-10-01T14:38:28.421Z,26.98
2022-10-01T14:40:54.875Z,26.98
2022-10-01T14:43:26.683Z,27.07
2022-10-01T14:45:54.943Z,27.03
2022-10-01T14:48:22.938Z,27.00
2022-10-01T14:50:53.230Z,27.04
2022-10-01T14:53:22.871Z,27.03
2022-10-01T14:55:53.723Z,27.02
2022-10-01T14:58:26.340Z,27.09
2022-10-01T15:00:55.192Z,27.05
2022-10-01T15:03:21.725Z,27.02
2022-10-01T15:05:49.708Z,27.05
2022-10-01T15:08:16.125Z,27.05
2022-10-01T15:11:08.062Z,27.18
2022-10-01T15:13:41.890Z,27.15
2022-10-01T15:16:14.032Z,27.17
2022-10-01T15:19:09.283Z,27.22
2022-10-01T15:21:45.356Z,27.20
2022-10-01T15:24:36.188Z,27.21
2022-10-01T15:27:02.831Z,27.12
2022-10-01T15:29:29.297Z,27.14
2022-10-01T15:31:57.644Z,27.15
2022-10-01T15:34:25.771Z,27.16
2022-10-01T15:36:53.660Z,27.15
2022-10-01T15:39:40.145Z,27.26
2022-10-01T15:42:31.599Z,27.25
2022-10-01T15:45:07.166Z,27.23
2022-10-01T15:47:49.289Z,27.10
2022-10-01T15:50:38.046Z,27.19
2022-10-01T15:53:19.569Z,27.23
2022-10-01T15:55:49.462Z,27.15
2022-10-01T15:58:19.515Z,27.21
2022-10-01T16:01:21.522Z,27.25
2022-10-01T16:03:56.107Z,27.14
2022-10-01T16:06:27.123Z,27.17
2022-10-01T16:09:05.521Z,27.25
2022-10-01T16:11:51.119Z,27.13
2022-10-01T16:14:28.199Z,27.23
2022-10-01T16:17:19.628Z,27.27
2022-10-01T16:19:52.233Z,27.23
2022-10-01T16:22:33.644Z,27.25
2022-10-01T16:25:07.448Z,27.17
2022-10-01T16:27:42.978Z,27.26
2022-10-01T16:30:11.996Z,27.16
2022-10-01T16:32:38.429Z,27.17
2022-10-01T16:35:25.432Z,27.28
2022-10-01T16:37:54.834Z,27.18
2022-10-01T16:40:25.295Z,27.23
2022-10-01T16:42:52.722Z,27.18
2022-10-01T16:45:24.948Z,27.21
2022-10-01T16:47:52.678Z,27.17
2022-10-01T16:50:23.895Z,27.22
2022-10-01T16:52:55.598Z,27.24
2022-10-01T16:55:24.526Z,27.19
2022-10-01T16:57:57.249Z,27.19
2022-10-01T17:00:26.747Z,27.22
2022-10-01T17:02:54.123Z,27.17
2022-10-01T17:05:35.550Z,27.28
2022-10-01T17:08:04.357Z,27.15
2022-10-01T17:10:35.839Z,27.17
2022-10-01T17:13:03.557Z,27.16
2022-10-01T17:15:30.738Z,27.16
2022-10-01T17:17:58.444Z,27.16
2022-10-01T17:20:28.418Z,27.16
2022-10-01T17:22:56.544Z,27.17
2022-10-01T17:25:30.999Z,27.22
2022-10-01T17:27:58.728Z,27.17
2022-10-01T17:30:25.385Z,27.16
2022-10-01T17:32:51.986Z,27.16
2022-10-01T17:35:18.391Z,27.17
2022-10-01T17:37:44.791Z,27.14
2022-10-01T17:40:11.347Z,27.15
2022-10-01T17:42:38.131Z,27.14
2022-10-01T17:45:07.393Z,27.20
2022-10-01T17:47:34.085Z,27.18
2022-10-01T17:50:00.653Z,27.16
2022-10-01T17:52:30.050Z,27.23
2022-10-01T17:54:56.435Z,27.12
2022-10-01T17:57:23.210Z,27.17
2022-10-01T17:59:49.579Z,27.13
2022-10-01T18:02:40.008Z,27.16
2022-10-01T18:05:04.125Z,27.07
2022-10-01T18:07:30.516Z,27.16
2022-10-01T18:09:56.870Z,27.15
2022-10-01T18:12:23.238Z,27.14
2022-10-01T18:14:49.810Z,27.16
2022-10-01T18:17:16.227Z,27.15
2022-10-01T18:19:57.862Z,27.16
2022-10-01T18:22:24.439Z,27.11
2022-10-01T18:24:50.853Z,27.14
2022-10-01T18:27:17.594Z,27.15
2022-10-01T18:29:43.985Z,27.17
2022-10-01T18:32:18.698Z,27.25
2022-10-01T18:34:47.408Z,27.17
2022-10-01T18:37:25.858Z,27.27
2022-10-01T18:40:13.143Z,27.30
2022-10-01T18:42:49.353Z,27.28
2022-10-01T18:45:24.372Z,27.23
2022-10-01T18:48:03.793Z,27.27
2022-10-01T18:50:59.718Z,27.32
2022-10-01T18:53:48.190Z,27.30
2022-10-01T18:56:29.418Z,27.26
2022-10-01T18:59:14.071Z,27.31
2022-10-01T19:01:50.265Z,27.26
2022-10-01T19:05:05.006Z,27.31
2022-10-01T19:07:52.583Z,27.25
2022-10-01T19:10:22.263Z,27.26
2022-10-01T19:13:13.718Z,27.31
2022-10-01T19:16:02.205Z,27.30
2022-10-01T19:18:51.830Z,27.32
2022-10-01T19:21:45.808Z,27.32
2022-10-01T19:24:30.691Z,27.22
2022-10-01T19:27:13.568Z,27.30
2022-10-01T19:30:03.262Z,27.25
2022-10-01T19:32:52.759Z,27.35
2022-10-01T19:35:39.466Z,27.36
2022-10-01T19:38:14.707Z,27.31
2022-10-01T19:40:46.213Z,27.25
2022-10-01T19:43:26.218Z,27.26
2022-10-01T19:46:16.509Z,27.33
2022-10-01T19:48:48.963Z,27.34
2022-10-01T19:51:20.135Z,27.28
2022-10-01T19:53:50.684Z,27.26
2022-10-01T19:56:22.996Z,27.33
2022-10-01T19:58:49.410Z,27.27
2022-10-01T20:01:20.554Z,27.34
2022-10-01T20:03:57.258Z,27.33
2022-10-01T20:06:37.262Z,27.38
2022-10-01T20:09:17.094Z,27.35
2022-10-01T20:11:54.721Z,27.36
2022-10-01T20:14:51.148Z,27.39
2022-10-01T20:17:32.670Z,27.31
2022-10-01T20:20:17.059Z,27.39
2022-10-01T20:23:19.493Z,27.41
2022-10-01T20:25:53.568Z,27.35
2022-10-01T20:28:30.385Z,27.33
2022-10-01T20:31:08.734Z,27.32
2022-10-01T20:34:01.484Z,27.40
2022-10-01T20:36:41.647Z,27.39
2022-10-01T20:39:27.969Z,27.40
2022-10-01T20:41:56.191Z,27.30
2022-10-01T20:44:27.880Z,27.38
2022-10-01T20:47:00.030Z,27.39
2022-10-01T20:49:51.310Z,27.44
2022-10-01T20:52:31.687Z,27.40
2022-10-01T20:55:06.571Z,27.40
2022-10-01T20:57:42.002Z,27.37
2022-10-01T21:00:19.364Z,27.40
2022-10-01T21:02:51.129Z,27.37
2022-10-01T21:05:34.294Z,27.42
2022-10-01T21:08:11.031Z,27.42
2022-10-01T21:10:46.469Z,27.41
2022-10-01T21:13:53.923Z,27.45
2022-10-01T21:16:27.956Z,27.43
2022-10-01T21:18:54.337Z,27.39
2022-10-01T21:21:35.223Z,27.44
2022-10-01T21:24:27.009Z,27.44
2022-10-01T21:27:05.575Z,27.44
2022-10-01T21:29:47.346Z,27.43
2022-10-01T21:32:44.506Z,27.44
2022-10-01T21:35:44.626Z,27.45
2022-10-01T21:38:28.529Z,27.36
2022-10-01T21:41:14.207Z,27.32
2022-10-01T21:43:57.487Z,27.43
2022-10-01T21:46:42.496Z,27.41
2022-10-01T21:49:24.897Z,27.40
2022-10-01T21:52:04.523Z,27.39
2022-10-01T21:54:54.831Z,27.39
2022-10-01T21:57:55.408Z,27.44
2022-10-01T22:00:26.815Z,27.35
2022-10-01T22:03:41.068Z,27.43
2022-10-01T22:06:28.901Z,27.43
2022-10-01T22:08:55.234Z,27.31
2022-10-01T22:11:29.693Z,27.38
2022-10-01T22:14:01.390Z,27.36
2022-10-01T22:16:40.807Z,27.22
2022-10-01T22:19:13.758Z,27.39
2022-10-01T22:21:49.783Z,27.41
2022-10-01T22:24:19.187Z,27.36
2022-10-01T22:26:53.779Z,27.38
2022-10-01T22:29:27.560Z,27.40
2022-10-01T22:31:58.921Z,27.37
2022-10-01T22:34:34.818Z,27.42
2022-10-01T22:37:25.604Z,27.46
2022-10-01T22:40:01.903Z,27.42
2022-10-01T22:42:36.994Z,27.39
2022-10-01T22:45:13.622Z,27.42
2022-10-01T22:48:08.232Z,27.33
2022-10-01T22:51:04.300Z,27.44
2022-10-01T22:53:41.940Z,27.38
2022-10-01T22:56:13.699Z,27.29
2022-10-01T22:59:04.392Z,27.40
2022-10-01T23:01:49.075Z,27.44
2022-10-01T23:04:28.438Z,27.43
2022-10-01T23:07:17.723Z,27.44
2022-10-01T23:09:58.286Z,27.26
2022-10-01T23:12:30.724Z,27.37
2022-10-01T23:15:13.594Z,27.43
2022-10-01T23:18:06.948Z,27.43
2022-10-01T23:20:54.795Z,27.38
2022-10-01T23:23:32.181Z,27.42
2022-10-01T23:26:19.160Z,27.30
2022-10-01T23:28:48.214Z,27.30
2022-10-01T23:31:32.892Z,27.43
2022-10-01T23:34:15.297Z,27.42
2022-10-01T23:36:52.495Z,27.40
2022-10-01T23:39:30.984Z,27.36
2022-10-01T23:42:15.726Z,27.33
2022-10-01T23:45:00.279Z,27.38
2022-10-01T23:47:35.087Z,27.36
2022-10-01T23:50:03.567Z,27.30
2022-10-01T23:52:45.277Z,27.37
2022-10-01T23:55:36.273Z,27.34
2022-10-01T23:58:07.765Z,27.30
